Time;durP1;ratioP1;P1;durP2;ratioP2;P2;SDS_P1;SDS_P2;PMS_P1;PMS_P2;Temp;Humidity;BMP_temperature;BMP_pressure;BME280_temperature;BME280_humidity;BME280_pressure;Samples;Min_cycle;Max_cycle;Signal;HPM_P1;HPM_P2
2023/05/15 00:01:24;;;;;;;7.30;3.70;;;;;;;11.84;93.03;97275.72;106979;1275;22570;-80
2023/05/15 00:03:53;;;;;;;6.80;3.70;;;;;;;11.83;93.23;97278.70;107037;1254;22566;-80
2023/05/15 00:06:22;;;;;;;6.40;3.70;;;;;;;11.81;93.10;97274.54;107070;1275;24071;-80
2023/05/15 00:08:50;;;;;;;11.30;4.00;;;;;;;11.81;92.88;97268.83;107030;1275;24198;-80
2023/05/15 00:11:18;;;;;;;7.40;4.20;;;;;;;11.81;93.98;97264.52;106989;1275;22606;-80
2023/05/15 00:13:46;;;;;;;6.30;3.90;;;;;;;11.75;93.76;97262.09;106994;1275;22644;-80
2023/05/15 00:16:14;;;;;;;5.60;4.50;;;;;;;11.73;94.12;97254.60;106987;1275;24071;-81
2023/05/15 00:18:42;;;;;;;4.80;3.70;;;;;;;11.71;94.75;97240.47;106947;1275;24234;-80
2023/05/15 00:21:10;;;;;;;5.90;4.20;;;;;;;11.69;94.65;97233.99;107012;1275;22652;-80
2023/05/15 00:23:38;;;;;;;6.00;4.40;;;;;;;11.68;95.40;97237.27;107011;1275;22661;-80
2023/05/15 00:26:06;;;;;;;5.60;4.30;;;;;;;11.66;95.42;97247.98;107008;1253;26628;-80
2023/05/15 00:28:34;;;;;;;4.60;4.10;;;;;;;11.65;95.51;97241.63;107000;1275;22627;-80
2023/05/15 00:31:02;;;;;;;5.60;4.50;;;;;;;11.65;96.12;97236.98;106948;1275;22524;-80
2023/05/15 00:33:30;;;;;;;5.60;4.00;;;;;;;11.63;96.27;97229.28;107010;1275;24484;-80
2023/05/15 00:35:58;;;;;;;5.50;4.00;;;;;;;11.62;96.11;97227.70;106951;1275;22566;-81
2023/05/15 00:38:26;;;;;;;5.00;4.40;;;;;;;11.61;95.92;97225.05;106981;1275;22774;-80
2023/05/15 00:40:55;;;;;;;5.60;4.80;;;;;;;11.60;96.44;97221.73;106942;1275;25390;-80
2023/05/15 00:43:25;;;;;;;6.80;4.80;;;;;;;11.57;96.31;97218.38;107004;1275;25381;-80
2023/05/15 00:45:53;;;;;;;6.90;4.40;;;;;;;11.55;96.67;97212.57;107009;1275;24311;-80
2023/05/15 00:48:24;;;;;;;5.70;4.60;;;;;;;11.53;96.63;97208.68;107015;1275;26003;-80
2023/05/15 00:50:52;;;;;;;6.60;5.00;;;;;;;11.53;96.68;97199.23;107009;1275;22536;-80
2023/05/15 00:53:21;;;;;;;5.40;4.80;;;;;;;11.53;96.56;97192.55;107048;1275;22558;-80
2023/05/15 00:55:49;;;;;;;6.70;4.80;;;;;;;11.55;97.41;97193.15;106869;1275;26609;-80
2023/05/15 00:58:20;;;;;;;5.90;4.90;;;;;;;11.54;97.86;97194.67;106985;1275;22629;-80
2023/05/15 01:00:51;;;;;;;6.80;4.90;;;;;;;11.53;97.49;97202.17;106981;1275;23207;-80
2023/05/15 01:03:19;;;;;;;7.00;4.80;;;;;;;11.54;97.79;97193.36;107014;1275;25262;-80
2023/05/15 01:05:48;;;;;;;5.30;4.70;;;;;;;11.54;97.88;97185.44;107008;1275;24190;-80
2023/05/15 01:08:36;;;;;;;6.60;5.40;;;;;;;11.54;98.16;97180.56;106960;1275;22652;-80
2023/05/15 01:11:07;;;;;;;5.70;4.80;;;;;;;11.52;98.32;97182.78;107019;1275;22654;-80
2023/05/15 01:13:35;;;;;;;6.70;5.70;;;;;;;11.50;98.65;97181.44;107050;1275;25466;-80
2023/05/15 01:16:06;;;;;;;6.60;5.90;;;;;;;11.49;99.49;97182.98;106982;1275;22532;-80
2023/05/15 01:18:35;;;;;;;9.20;5.50;;;;;;;11.45;99.20;97183.34;107095;1275;22529;-80
2023/05/15 01:21:09;;;;;;;6.80;4.90;;;;;;;11.44;99.73;97188.88;107069;1275;24246;-81
2023/05/15 01:24:02;;;;;;;7.10;4.70;;;;;;;11.43;99.16;97189.41;107043;1275;22524;-81
2023/05/15 01:26:58;;;;;;;6.60;5.20;;;;;;;11.43;99.62;97190.20;107048;1275;22608;-81
2023/05/15 01:29:46;;;;;;;6.20;4.70;;;;;;;11.41;99.70;97181.73;107041;1275;23283;-81
2023/05/15 01:32:58;;;;;;;6.00;5.20;;;;;;;11.40;99.32;97175.80;107059;1275;22644;-82
2023/05/15 01:35:45;;;;;;;6.60;5.50;;;;;;;11.40;99.40;97182.74;107018;1275;25501;-79
2023/05/15 01:38:32;;;;;;;5.60;4.60;;;;;;;11.41;99.57;97182.61;106937;1275;24192;-79
2023/05/15 01:41:28;;;;;;;5.60;4.80;;;;;;;11.41;99.97;97181.16;106945;1275;25486;-79
2023/05/15 01:44:06;;;;;;;7.50;5.00;;;;;;;11.38;99.87;97175.42;106857;1275;25386;-81
2023/05/15 01:46:38;;;;;;;6.60;5.20;;;;;;;11.37;99.86;97178.09;107027;1275;25370;-81
2023/05/15 01:49:09;;;;;;;7.50;4.90;;;;;;;11.37;99.98;97179.48;107013;1275;24205;-80
2023/05/15 01:51:39;;;;;;;6.60;5.30;;;;;;;11.37;99.87;97175.01;107019;1275;24063;-79
2023/05/15 01:54:08;;;;;;;6.40;5.00;;;;;;;11.38;100.00;97163.34;107016;1275;22566;-81
2023/05/15 01:56:37;;;;;;;9.80;5.00;;;;;;;11.38;100.00;97158.48;107099;1275;22603;-82
2023/05/15 01:59:08;;;;;;;5.60;4.80;;;;;;;11.36;100.00;97164.96;107100;1275;22524;-81
2023/05/15 02:01:37;;;;;;;5.20;4.60;;;;;;;11.36;100.00;97164.04;106979;1275;22524;-80
2023/05/15 02:04:07;;;;;;;6.60;4.90;;;;;;;11.37;100.00;97158.83;107074;1275;22521;-80
2023/05/15 02:06:35;;;;;;;5.80;4.80;;;;;;;11.37;100.00;97153.11;106918;1275;25465;-78
2023/05/15 02:09:03;;;;;;;10.20;5.50;;;;;;;11.37;100.00;97145.72;106996;1275;22514;-79
2023/05/15 02:11:33;;;;;;;6.80;5.10;;;;;;;11.38;100.00;97146.06;107030;1275;25390;-79
2023/05/15 02:14:03;;;;;;;6.50;5.50;;;;;;;11.39;100.00;97133.47;107023;1275;23897;-78
2023/05/15 02:16:31;;;;;;;7.20;5.10;;;;;;;11.39;100.00;97135.52;106935;1275;22645;-78
2023/05/15 02:19:00;;;;;;;7.60;5.40;;;;;;;11.37;100.00;97139.04;107001;1275;22521;-78
2023/05/15 02:21:28;;;;;;;7.50;5.30;;;;;;;11.36;100.00;97132.38;106973;1275;22525;-78
2023/05/15 02:23:56;;;;;;;5.50;4.70;;;;;;;11.35;100.00;97132.47;106996;1275;24234;-78
2023/05/15 02:26:41;;;;;;;6.70;5.70;;;;;;;11.34;100.00;97129.90;106988;1275;24389;-81
2023/05/15 02:29:22;;;;;;;6.50;5.10;;;;;;;11.36;100.00;97125.20;106977;1275;22530;-77
2023/05/15 02:31:56;;;;;;;7.70;5.40;;;;;;;11.35;100.00;97119.99;106952;1275;22547;-78
2023/05/15 02:34:38;;;;;;;5.50;4.90;;;;;;;11.35;100.00;97118.61;106992;1275;22775;-78
2023/05/15 02:37:12;;;;;;;6.90;5.50;;;;;;;11.35;100.00;97118.16;106902;1260;25382;-79
2023/05/15 02:39:44;;;;;;;5.60;5.00;;;;;;;11.35;100.00;97114.41;106979;1275;22615;-78
2023/05/15 02:42:14;;;;;;;6.90;5.30;;;;;;;11.36;100.00;97119.23;107022;1275;25844;-79
2023/05/15 02:44:43;;;;;;;6.70;5.70;;;;;;;11.36;100.00;97112.21;106882;1275;22577;-79
2023/05/15 02:47:11;;;;;;;5.60;5.00;;;;;;;11.36;100.00;97106.92;106931;1275;24209;-77
2023/05/15 02:49:40;;;;;;;6.10;4.90;;;;;;;11.36;100.00;97105.78;106946;1275;25319;-77
2023/05/15 02:52:08;;;;;;;5.80;5.20;;;;;;;11.35;100.00;97103.05;106970;1275;22529;-77
2023/05/15 02:54:36;;;;;;;8.20;5.60;;;;;;;11.36;100.00;97097.36;107016;1275;22655;-77
2023/05/15 02:57:04;;;;;;;6.90;5.20;;;;;;;11.35;100.00;97094.87;106948;1275;25144;-77
2023/05/15 02:59:32;;;;;;;5.70;5.10;;;;;;;11.37;100.00;97097.77;106920;1275;22526;-78
2023/05/15 03:02:02;;;;;;;5.80;5.20;;;;;;;11.36;100.00;97101.38;107018;1275;25315;-78
2023/05/15 03:04:30;;;;;;;5.40;4.90;;;;;;;11.37;100.00;97093.77;107015;1275;22649;-77
2023/05/15 03:06:58;;;;;;;6.30;5.10;;;;;;;11.38;100.00;97095.36;106889;1275;24438;-79
2023/05/15 03:09:27;;;;;;;5.80;4.70;;;;;;;11.39;100.00;97092.00;106971;1275;25496;-78
2023/05/15 03:11:55;;;;;;;7.80;5.80;;;;;;;11.40;100.00;97084.82;107018;1275;22646;-79
2023/05/15 03:14:22;;;;;;;7.10;5.50;;;;;;;11.44;100.00;97084.00;107015;1275;24235;-79
2023/05/15 03:16:50;;;;;;;7.40;4.90;;;;;;;11.43;100.00;97089.09;107149;1275;23828;-79
2023/05/15 03:19:18;;;;;;;5.40;4.90;;;;;;;11.44;100.00;97091.70;107043;1275;25487;-78
2023/05/15 03:21:46;;;;;;;5.90;4.90;;;;;;;11.46;100.00;97087.58;107023;1275;23896;-79
2023/05/15 03:24:14;;;;;;;7.00;4.70;;;;;;;11.47;100.00;97088.05;107035;1275;24679;-79
2023/05/15 03:26:43;;;;;;;7.10;5.10;;;;;;;11.47;100.00;97091.70;106982;1275;22561;-78
2023/05/15 03:29:12;;;;;;;6.80;5.00;;;;;;;11.48;100.00;97096.30;106973;1275;25367;-78
2023/05/15 03:31:40;;;;;;;8.50;5.90;;;;;;;11.49;100.00;97096.02;106987;1275;22527;-78
2023/05/15 03:34:08;;;;;;;12.20;11.20;;;;;;;11.50;100.00;97098.23;107011;1275;22625;-78
2023/05/15 03:36:36;;;;;;;7.40;6.30;;;;;;;11.50;100.00;97088.90;106999;1275;25390;-78
2023/05/15 03:39:04;;;;;;;6.40;5.60;;;;;;;11.48;100.00;97092.36;106970;1275;22757;-78
2023/05/15 03:41:32;;;;;;;6.00;5.40;;;;;;;11.46;100.00;97087.87;107009;1275;22525;-78
2023/05/15 03:44:00;;;;;;;5.60;5.00;;;;;;;11.47;100.00;97085.14;106996;1275;22645;-79
2023/05/15 03:46:28;;;;;;;5.40;4.80;;;;;;;11.47;100.00;97087.39;106990;1275;22663;-78
2023/05/15 03:48:56;;;;;;;6.00;4.80;;;;;;;11.47;100.00;97084.45;106926;1275;23000;-78
2023/05/15 03:51:26;;;;;;;7.10;5.30;;;;;;;11.47;100.00;97077.74;106994;1275;22544;-78
2023/05/15 03:53:54;;;;;;;8.20;5.90;;;;;;;11.48;100.00;97079.02;107001;1275;22562;-79
2023/05/15 03:56:22;;;;;;;7.00;4.50;;;;;;;11.48;100.00;97077.27;107018;1275;22534;-78
2023/05/15 03:58:50;;;;;;;5.70;4.80;;;;;;;11.49;100.00;97080.98;107002;1275;26481;-78
2023/05/15 04:01:18;;;;;;;6.30;5.20;;;;;;;11.52;100.00;97072.17;106989;1275;22657;-78
2023/05/15 04:03:46;;;;;;;5.10;4.60;;;;;;;11.54;100.00;97068.86;106996;1275;22804;-79
2023/05/15 04:06:14;;;;;;;5.80;4.50;;;;;;;11.54;100.00;97057.94;106963;1275;26700;-78
2023/05/15 04:08:42;;;;;;;5.00;4.30;;;;;;;11.55;100.00;97054.45;107000;1275;22630;-77
2023/05/15 04:11:11;;;;;;;4.80;4.30;;;;;;;11.54;100.00;97052.92;106978;1275;22555;-77
2023/05/15 04:13:39;;;;;;;5.80;4.00;;;;;;;11.54;100.00;97044.98;106967;1275;24235;-77
2023/05/15 04:16:07;;;;;;;4.40;4.00;;;;;;;11.56;100.00;97044.60;106999;1275;22624;-77
2023/05/15 04:18:35;;;;;;;4.70;3.80;;;;;;;11.58;100.00;97048.69;106882;1275;22525;-77
2023/05/15 04:21:03;;;;;;;5.30;4.20;;;;;;;11.58;100.00;97047.83;106926;1275;22553;-77
2023/05/15 04:23:31;;;;;;;5.50;4.40;;;;;;;11.57;100.00;97043.33;106978;1275;25390;-78
2023/05/15 04:26:00;;;;;;;5.00;4.20;;;;;;;11.57;100.00;97041.41;106972;1275;22532;-78
2023/05/15 04:28:28;;;;;;;4.70;4.00;;;;;;;11.56;100.00;97039.20;106951;1275;22569;-78
2023/05/15 04:30:58;;;;;;;5.70;4.00;;;;;;;11.57;100.00;97040.02;106962;1275;22579;-78
2023/05/15 04:33:26;;;;;;;4.70;4.20;;;;;;;11.58;100.00;97036.59;106988;1275;22639;-78
2023/05/15 04:35:54;;;;;;;5.40;4.40;;;;;;;11.59;100.00;97040.34;106943;1275;23258;-79
2023/05/15 04:38:22;;;;;;;5.60;4.00;;;;;;;11.62;100.00;97029.17;107020;1275;22624;-79
2023/05/15 04:40:50;;;;;;;5.10;4.40;;;;;;;11.65;100.00;97012.23;106802;1275;24062;-78
2023/05/15 04:43:18;;;;;;;6.10;4.10;;;;;;;11.70;100.00;97008.96;106985;1275;22638;-78
2023/05/15 04:45:46;;;;;;;6.40;4.10;;;;;;;11.75;100.00;97000.00;106989;1275;25258;-79
2023/05/15 04:48:14;;;;;;;4.20;3.80;;;;;;;11.82;100.00;96980.04;106964;1275;22538;-78
2023/05/15 04:50:42;;;;;;;6.80;4.10;;;;;;;11.92;100.00;96978.19;107035;1275;22628;-79
2023/05/15 04:53:10;;;;;;;4.90;3.90;;;;;;;11.98;100.00;96988.21;107050;1275;22613;-79
2023/05/15 04:55:38;;;;;;;6.60;4.20;;;;;;;11.97;100.00;96994.29;107019;1275;24343;-79
2023/05/15 04:58:06;;;;;;;4.90;4.40;;;;;;;11.98;100.00;97000.01;106996;1275;22656;-78
2023/05/15 05:00:34;;;;;;;7.30;4.10;;;;;;;12.01;100.00;97008.68;107067;1275;22534;-78
2023/05/15 05:03:01;;;;;;;5.80;4.00;;;;;;;12.03;100.00;97013.56;107165;1275;22670;-79
2023/05/15 05:05:29;;;;;;;4.80;4.10;;;;;;;12.04;100.00;97019.30;107156;1275;25383;-80
2023/05/15 05:07:58;;;;;;;5.30;4.70;;;;;;;12.06;100.00;97021.38;107054;1275;24234;-80
2023/05/15 05:10:26;;;;;;;7.10;4.30;;;;;;;12.11;100.00;97021.15;107093;1275;22540;-80
2023/05/15 05:12:54;;;;;;;8.70;4.80;;;;;;;12.15;100.00;97018.92;107055;1260;22599;-80
2023/05/15 05:15:22;;;;;;;6.70;6.10;;;;;;;12.22;100.00;97024.43;107053;1275;22668;-81
2023/05/15 05:17:51;;;;;;;7.30;5.00;;;;;;;12.28;100.00;97025.18;107027;1275;22952;-79
2023/05/15 05:20:19;;;;;;;6.10;4.60;;;;;;;12.29;100.00;97021.60;107019;1269;24312;-78
2023/05/15 05:22:47;;;;;;;6.00;4.80;;;;;;;12.32;100.00;97026.23;106988;1275;22783;-81
2023/05/15 05:25:16;;;;;;;5.10;4.60;;;;;;;12.31;100.00;97021.43;107090;1275;22656;-83
2023/05/15 05:27:44;;;;;;;5.80;5.00;;;;;;;12.32;100.00;97020.06;107040;1275;22543;-82
2023/05/15 05:30:13;;;;;;;5.70;5.10;;;;;;;12.33;100.00;97020.05;107047;1275;26506;-82
2023/05/15 05:32:41;;;;;;;7.30;5.60;;;;;;;12.35;100.00;97020.64;107004;1275;23029;-79
2023/05/15 05:35:09;;;;;;;6.10;5.10;;;;;;;12.39;100.00;97014.38;106991;1275;22548;-78
2023/05/15 05:37:37;;;;;;;5.70;4.90;;;;;;;12.41;100.00;97003.48;106980;1275;22534;-78
2023/05/15 05:40:08;;;;;;;5.20;4.70;;;;;;;12.42;100.00;96998.90;106972;1275;22527;-81
2023/05/15 05:42:36;;;;;;;6.50;4.60;;;;;;;12.44;100.00;97000.19;107000;1275;22522;-80
2023/05/15 05:45:05;;;;;;;5.30;4.20;;;;;;;12.44;100.00;97006.38;107002;1275;22666;-81
2023/05/15 05:47:33;;;;;;;5.80;5.20;;;;;;;12.43;100.00;97008.58;107034;1275;25513;-81
2023/05/15 05:50:02;;;;;;;6.90;5.50;;;;;;;12.43;100.00;97008.35;107025;1275;22991;-82
2023/05/15 05:52:30;;;;;;;5.30;4.80;;;;;;;12.41;100.00;97000.08;106878;1272;170788;-79
2023/05/15 05:54:58;;;;;;;6.10;5.50;;;;;;;12.42;100.00;96991.95;107332;1275;25399;-80
2023/05/15 05:57:26;;;;;;;5.60;4.70;;;;;;;12.44;100.00;96986.29;106970;1275;25329;-78
2023/05/15 05:59:54;;;;;;;6.30;5.60;;;;;;;12.43;100.00;96983.27;107069;1275;25391;-79
2023/05/15 06:02:22;;;;;;;6.50;5.90;;;;;;;12.42;100.00;96981.36;107379;1275;24247;-80
2023/05/15 06:04:50;;;;;;;7.00;6.30;;;;;;;12.42;100.00;96976.90;107251;1275;23893;-78
2023/05/15 06:07:19;;;;;;;6.00;5.40;;;;;;;12.48;100.00;96973.89;106970;1275;25480;-78
2023/05/15 06:09:47;;;;;;;5.90;5.30;;;;;;;12.57;100.00;96972.56;106992;1253;25217;-79
2023/05/15 06:12:15;;;;;;;5.80;4.80;;;;;;;12.66;100.00;96968.77;107011;1275;22784;-79
2023/05/15 06:14:44;;;;;;;6.80;4.90;;;;;;;12.77;100.00;96969.52;107008;1275;22532;-79
2023/05/15 06:17:12;;;;;;;5.50;4.90;;;;;;;12.83;100.00;96970.33;107403;1275;22619;-81
2023/05/15 06:19:40;;;;;;;6.20;5.10;;;;;;;12.92;100.00;96971.18;107163;1269;22520;-79
2023/05/15 06:22:08;;;;;;;6.30;5.70;;;;;;;13.00;100.00;96965.23;107087;1275;22577;-80
2023/05/15 06:24:36;;;;;;;16.30;12.60;;;;;;;13.07;100.00;96961.07;107068;1275;22563;-80
2023/05/15 06:27:04;;;;;;;13.60;11.10;;;;;;;13.17;100.00;96958.01;107053;1275;24049;-81
2023/05/15 06:29:32;;;;;;;9.70;8.70;;;;;;;13.25;100.00;96959.08;107072;1275;22548;-85
2023/05/15 06:32:00;;;;;;;7.50;6.30;;;;;;;13.33;100.00;96957.81;107081;1275;22520;-83
2023/05/15 06:34:28;;;;;;;6.90;5.80;;;;;;;13.40;100.00;96955.58;107085;1275;24183;-82
2023/05/15 06:36:56;;;;;;;6.80;4.90;;;;;;;13.45;100.00;96955.10;107028;1275;23969;-83
2023/05/15 06:39:24;;;;;;;7.10;5.70;;;;;;;13.52;100.00;96958.78;107100;1275;22917;-81
2023/05/15 06:41:56;;;;;;;7.70;5.50;;;;;;;13.58;100.00;96947.52;107124;1275;22563;-82
2023/05/15 06:44:25;;;;;;;5.90;5.30;;;;;;;13.68;100.00;96949.12;107117;1275;22647;-84
2023/05/15 06:46:53;;;;;;;5.50;4.90;;;;;;;13.78;100.00;96952.68;107130;1275;22529;-83
2023/05/15 06:49:21;;;;;;;6.00;5.20;;;;;;;13.83;100.00;96951.13;107428;1260;22818;-83
2023/05/15 06:51:50;;;;;;;6.70;5.70;;;;;;;13.87;100.00;96954.80;107307;1253;22992;-84
2023/05/15 06:54:18;;;;;;;6.40;5.40;;;;;;;13.91;100.00;96951.88;107194;1269;25480;-82
2023/05/15 06:56:46;;;;;;;8.60;6.40;;;;;;;13.93;100.00;96955.80;107170;1262;22578;-83
2023/05/15 06:59:14;;;;;;;7.30;5.40;;;;;;;13.95;100.00;96958.42;107115;1260;25867;-82
2023/05/15 07:01:42;;;;;;;7.20;5.50;;;;;;;13.96;100.00;96959.52;107114;1275;23195;-83
2023/05/15 07:04:10;;;;;;;7.90;5.70;;;;;;;13.98;100.00;96958.13;107136;1275;24276;-78
2023/05/15 07:06:40;;;;;;;7.90;6.00;;;;;;;14.05;100.00;96950.73;107265;1272;25316;-79
2023/05/15 07:09:08;;;;;;;7.90;6.50;;;;;;;14.12;100.00;96949.60;107255;1275;22640;-78
2023/05/15 07:11:37;;;;;;;7.10;6.40;;;;;;;14.16;100.00;96951.44;107235;1269;22588;-80
2023/05/15 07:14:05;;;;;;;7.60;5.60;;;;;;;14.21;100.00;96951.55;107090;1276;22820;-79
2023/05/15 07:16:33;;;;;;;5.60;5.00;;;;;;;14.22;100.00;96955.77;107086;1276;22616;-78
2023/05/15 07:19:02;;;;;;;6.90;5.20;;;;;;;14.22;100.00;96958.55;107220;1275;24166;-79
2023/05/15 07:21:30;;;;;;;7.50;5.20;;;;;;;14.21;100.00;96961.02;107315;1275;25437;-78
2023/05/15 07:23:58;;;;;;;5.60;4.70;;;;;;;14.22;100.00;96963.59;107208;1275;22787;-80
2023/05/15 07:26:26;;;;;;;6.70;5.00;;;;;;;14.23;100.00;96963.86;107066;1275;22667;-83
2023/05/15 07:29:05;;;;;;;13.30;5.30;;;;;;;14.20;100.00;96962.37;107320;1272;22781;-81
2023/05/15 07:31:33;;;;;;;6.10;5.20;;;;;;;14.16;100.00;96961.73;107242;1275;25378;-82
2023/05/15 07:34:01;;;;;;;8.90;5.30;;;;;;;14.17;100.00;96961.68;107337;1272;22537;-84
2023/05/15 07:36:29;;;;;;;7.30;6.60;;;;;;;14.17;100.00;96968.25;107379;1275;22657;-84
2023/05/15 07:38:57;;;;;;;8.00;7.10;;;;;;;14.19;100.00;96963.66;107281;1275;22876;-87
2023/05/15 07:41:25;;;;;;;7.10;6.40;;;;;;;14.27;100.00;96960.63;107265;1275;22590;-82
2023/05/15 07:43:53;;;;;;;10.30;6.00;;;;;;;14.32;100.00;96961.45;107223;1275;24742;-79
2023/05/15 07:46:21;;;;;;;6.10;5.10;;;;;;;14.38;100.00;96961.01;106997;1275;22700;-79
2023/05/15 07:48:49;;;;;;;6.70;5.50;;;;;;;14.39;100.00;96967.77;107128;1275;25482;-83
2023/05/15 07:51:17;;;;;;;8.10;5.10;;;;;;;14.41;100.00;96974.48;107129;1275;23379;-81
2023/05/15 07:53:45;;;;;;;6.10;5.40;;;;;;;14.42;100.00;96971.65;107151;1275;22527;-83
2023/05/15 07:56:14;;;;;;;7.00;5.30;;;;;;;14.45;100.00;96972.11;107144;1275;22527;-83
2023/05/15 07:58:41;;;;;;;7.70;6.10;;;;;;;14.50;100.00;96969.91;107195;1268;25431;-82
2023/05/15 08:01:10;;;;;;;7.50;6.50;;;;;;;14.51;100.00;96969.83;107116;1275;25769;-82
2023/05/15 08:03:38;;;;;;;11.20;6.40;;;;;;;14.57;100.00;96973.15;107156;1272;25609;-81
2023/05/15 08:06:07;;;;;;;6.40;5.30;;;;;;;14.57;100.00;96969.66;107199;1272;22633;-80
2023/05/15 08:08:35;;;;;;;6.90;5.30;;;;;;;14.57;100.00;96968.82;107192;1275;22649;-81
2023/05/15 08:11:03;;;;;;;7.10;5.20;;;;;;;14.56;100.00;96969.92;107225;1275;22519;-81
2023/05/15 08:13:31;;;;;;;8.40;5.10;;;;;;;14.58;100.00;96970.95;107265;1275;24244;-80
2023/05/15 08:15:59;;;;;;;6.60;5.30;;;;;;;14.61;100.00;96977.75;107209;1275;23155;-81
2023/05/15 08:18:27;;;;;;;8.40;6.70;;;;;;;14.61;100.00;96980.86;107217;1272;22517;-81
2023/05/15 08:20:55;;;;;;;10.80;7.70;;;;;;;14.60;100.00;96979.20;107143;1275;22626;-81
2023/05/15 08:23:23;;;;;;;6.40;5.80;;;;;;;14.60;100.00;96981.69;107193;1275;22521;-80
2023/05/15 08:25:51;;;;;;;6.90;5.10;;;;;;;14.62;99.97;96982.58;107153;1275;25326;-82
2023/05/15 08:28:18;;;;;;;6.20;5.40;;;;;;;14.61;99.90;96983.02;107178;1275;22632;-82
2023/05/15 08:30:46;;;;;;;6.30;4.90;;;;;;;14.62;99.82;96984.91;107108;1275;24289;-82
2023/05/15 08:33:14;;;;;;;5.10;4.60;;;;;;;14.64;99.77;96978.30;107282;1275;23086;-82
2023/05/15 08:35:42;;;;;;;6.50;5.40;;;;;;;14.63;99.42;96981.44;107136;1275;24069;-83
2023/05/15 08:38:11;;;;;;;7.60;6.00;;;;;;;14.64;99.89;96984.89;107172;1275;25392;-84
2023/05/15 08:40:44;;;;;;;8.10;5.70;;;;;;;14.66;99.58;96990.67;107126;1275;22563;-84
2023/05/15 08:43:16;;;;;;;6.50;5.20;;;;;;;14.67;99.71;96991.31;107225;1275;24273;-84
2023/05/15 08:45:44;;;;;;;10.10;5.20;;;;;;;14.73;99.84;96982.95;107291;1275;23343;-86
2023/05/15 08:48:19;;;;;;;6.30;5.20;;;;;;;14.80;99.59;96985.30;107195;1275;25465;-82
2023/05/15 08:50:49;;;;;;;7.20;4.70;;;;;;;14.84;99.64;96986.01;107285;1275;24262;-85
2023/05/15 08:53:17;;;;;;;9.20;5.00;;;;;;;14.83;99.22;96980.27;107234;1275;24594;-82
2023/05/15 08:55:45;;;;;;;7.70;6.90;;;;;;;14.84;99.32;96983.08;106976;1275;22524;-83
2023/05/15 08:58:15;;;;;;;10.10;9.20;;;;;;;14.85;99.23;96992.86;107209;1275;22532;-84
2023/05/15 09:00:44;;;;;;;9.50;5.80;;;;;;;14.84;99.16;96984.46;107187;1275;24368;-83
2023/05/15 09:03:15;;;;;;;7.90;7.20;;;;;;;14.87;99.12;96980.44;107153;1275;22630;-85
2023/05/15 09:05:46;;;;;;;6.20;4.30;;;;;;;14.93;99.15;96984.77;107199;1275;24197;-84
2023/05/15 09:08:17;;;;;;;5.50;3.90;;;;;;;14.95;99.04;96982.90;107190;1275;22520;-84
2023/05/15 09:10:47;;;;;;;7.10;4.80;;;;;;;14.95;98.67;96985.91;107235;1275;22584;-82
2023/05/15 09:13:16;;;;;;;8.90;4.70;;;;;;;14.92;98.62;96988.09;107102;1275;22641;-81
2023/05/15 09:15:46;;;;;;;8.00;4.80;;;;;;;14.88;98.45;96987.29;107236;1275;24244;-81
2023/05/15 09:18:15;;;;;;;6.70;5.60;;;;;;;14.84;98.33;96996.88;107338;1275;25458;-78
2023/05/15 09:20:44;;;;;;;9.20;4.80;;;;;;;14.75;98.10;96996.65;107268;1275;25393;-83
2023/05/15 09:23:24;;;;;;;5.60;5.10;;;;;;;14.78;98.53;97001.14;107237;1275;22552;-82
2023/05/15 09:25:55;;;;;;;7.00;5.80;;;;;;;14.78;98.34;96997.88;107137;1275;22528;-79
2023/05/15 09:28:31;;;;;;;6.20;5.50;;;;;;;14.80;98.43;96994.05;107207;1272;24212;-78
2023/05/15 09:31:02;;;;;;;7.00;5.30;;;;;;;14.83;98.43;96994.52;107163;1275;24107;-78
2023/05/15 09:33:32;;;;;;;9.40;6.80;;;;;;;14.79;98.02;96996.73;107102;1275;22650;-79
2023/05/15 09:36:03;;;;;;;6.60;5.70;;;;;;;14.83;98.34;96998.77;107029;1275;25585;-78
2023/05/15 09:38:39;;;;;;;5.40;4.60;;;;;;;14.86;97.87;96995.05;107150;1275;22654;-78
2023/05/15 09:41:08;;;;;;;5.00;4.40;;;;;;;14.88;97.91;96991.55;107157;1268;24249;-78
2023/05/15 09:43:38;;;;;;;5.90;4.70;;;;;;;14.93;98.12;96999.83;107235;1275;22577;-78
2023/05/15 09:46:08;;;;;;;11.30;10.10;;;;;;;15.00;98.26;97004.80;107031;1275;22626;-79
2023/05/15 09:48:37;;;;;;;7.90;5.50;;;;;;;15.01;97.61;97006.75;107244;1269;22539;-79
2023/05/15 09:51:17;;;;;;;8.90;5.80;;;;;;;14.96;97.41;97011.36;107089;1275;25281;-78
2023/05/15 09:53:52;;;;;;;6.50;4.90;;;;;;;14.95;97.66;97018.33;107146;1275;22578;-79
2023/05/15 09:56:21;;;;;;;7.40;4.40;;;;;;;14.94;97.19;97023.25;107162;1263;22540;-80
2023/05/15 09:58:57;;;;;;;7.40;4.30;;;;;;;14.94;97.25;97027.27;107121;1275;22951;-79
2023/05/15 10:01:26;;;;;;;4.90;4.00;;;;;;;14.93;96.94;97028.88;107232;1275;24212;-79
2023/05/15 10:04:04;;;;;;;5.30;4.80;;;;;;;14.95;97.31;97021.27;107191;1275;25688;-82
2023/05/15 10:06:44;;;;;;;6.90;4.40;;;;;;;15.00;97.38;97027.52;107175;1275;22763;-84
2023/05/15 10:09:13;;;;;;;8.60;4.90;;;;;;;15.01;97.05;97030.39;107222;1269;23348;-82
2023/05/15 10:11:43;;;;;;;9.10;6.10;;;;;;;15.01;97.02;97025.52;107038;1275;25315;-82
2023/05/15 10:14:13;;;;;;;5.80;4.30;;;;;;;15.04;96.44;97027.05;107143;1275;22521;-79
2023/05/15 10:16:41;;;;;;;6.80;4.20;;;;;;;14.99;96.44;97026.55;106857;1275;22635;-80
2023/05/15 10:19:11;;;;;;;5.20;4.40;;;;;;;14.93;96.61;97020.80;107124;1269;22623;-80
2023/05/15 10:21:40;;;;;;;8.20;4.20;;;;;;;15.04;96.75;97036.59;107119;1275;25408;-81
2023/05/15 10:24:10;;;;;;;6.40;4.20;;;;;;;15.09;96.94;97036.64;107106;1275;22520;-82
2023/05/15 10:26:40;;;;;;;7.10;4.70;;;;;;;15.17;96.56;97040.80;107138;1275;25249;-81
2023/05/15 10:29:09;;;;;;;6.60;4.30;;;;;;;15.16;95.88;97043.71;107202;1275;28187;-81
2023/05/15 10:31:41;;;;;;;5.20;4.00;;;;;;;15.14;95.92;97035.38;107119;1272;22559;-82
2023/05/15 10:34:10;;;;;;;8.80;5.60;;;;;;;15.16;96.30;97032.19;107119;1275;23078;-81
2023/05/15 10:36:40;;;;;;;6.10;4.70;;;;;;;15.18;96.02;97036.79;107098;1275;25300;-78
2023/05/15 10:39:10;;;;;;;6.30;3.90;;;;;;;15.22;96.26;97040.76;107188;1275;22672;-78
2023/05/15 10:41:39;;;;;;;4.60;3.50;;;;;;;15.22;95.64;97041.86;107097;1275;23243;-80
2023/05/15 10:44:07;;;;;;;6.20;3.50;;;;;;;15.15;94.90;97045.41;107077;1275;22630;-80
2023/05/15 10:46:36;;;;;;;4.30;3.80;;;;;;;15.12;95.22;97040.90;107105;1275;22541;-79
2023/05/15 10:49:04;;;;;;;6.40;4.00;;;;;;;15.14;95.68;97031.11;107095;1270;24398;-79
2023/05/15 10:51:34;;;;;;;7.00;4.00;;;;;;;15.16;95.50;97023.17;107120;1275;22524;-80
2023/05/15 10:54:03;;;;;;;6.60;3.80;;;;;;;15.17;94.79;97022.34;107150;1275;24369;-82
2023/05/15 10:56:32;;;;;;;7.10;4.00;;;;;;;15.14;94.43;97020.70;107086;1275;24309;-80
2023/05/15 10:59:06;;;;;;;5.90;3.90;;;;;;;15.16;94.61;97015.90;107056;1275;22517;-81
2023/05/15 11:01:38;;;;;;;7.30;4.40;;;;;;;15.19;94.44;97015.42;107102;1275;25322;-81
2023/05/15 11:04:14;;;;;;;5.20;4.10;;;;;;;15.18;94.48;97019.19;107086;1275;25319;-81
2023/05/15 11:06:44;;;;;;;4.60;2.90;;;;;;;15.33;95.27;97021.80;107082;1275;22576;-81
2023/05/15 11:09:23;;;;;;;5.20;3.60;;;;;;;15.46;94.31;97008.88;107176;1275;22830;-82
2023/05/15 11:12:00;;;;;;;8.00;4.40;;;;;;;15.60;94.48;96999.86;107098;1275;22644;-81
2023/05/15 11:14:34;;;;;;;5.50;3.20;;;;;;;15.69;93.77;96995.59;107132;1275;25916;-80
2023/05/15 11:17:07;;;;;;;6.40;4.20;;;;;;;15.74;93.61;97003.02;107061;1275;24454;-81
2023/05/15 11:19:38;;;;;;;6.70;4.00;;;;;;;15.84;93.95;97009.52;107100;1275;22541;-82
2023/05/15 11:22:26;;;;;;;5.50;3.30;;;;;;;16.01;94.25;97005.84;107145;1275;22646;-81
2023/05/15 11:24:54;;;;;;;3.50;2.70;;;;;;;16.23;94.04;97013.59;107108;1272;22535;-82
2023/05/15 11:27:43;;;;;;;4.10;2.70;;;;;;;16.37;93.46;97011.08;107064;1275;22518;-81
2023/05/15 11:30:25;;;;;;;4.90;2.90;;;;;;;16.45;92.77;96999.59;107150;1275;25384;-81
2023/05/15 11:32:59;;;;;;;6.40;3.50;;;;;;;16.59;92.60;96993.70;107049;1275;22531;-81